Yunnan — VROI7 — position and weather

sailwx.info

Track history (hours):
 
Tides and Currents Weather Stations Pressure Air Temp Water Temp Dewpoint Dewpoint Depression Visibility Wind Speed Wind Dir Waves Ship Positions

Yunnan

Last reported at 2018-Feb-21 19:28 UTC. Time now 2018-Feb-22 15:15 UTC.
Position N 41°42' E 141°43'.

Length 180 m; draft 6.3 m.

Type: Cargo ship. MMSI: 477855700.

Date/timePositionNaut miles runAvg speedWind from/ knotsBaromVisibWave heightAir tempDewpointWater temp
2018-Feb-21 19:28N 41°42' E 141°43'613.5
2018-Feb-21 19:00N 41°41' E 141°35'714.1
2018-Feb-21 18:30N 41°40' E 141°25'713.4
2018-Feb-21 18:00N 41°38' E 141°17'712.8
2018-Feb-21 17:30N 41°38' E 141°08'714.6
2018-Feb-21 17:00N 41°37' E 140°58'714.9
2018-Feb-21 16:30N 41°35' E 140°49'714.5
2018-Feb-21 16:00N 41°30' E 140°41'714.5
2018-Feb-21 15:30N 41°26' E 140°33'815.1
2018-Feb-21 15:00N 41°22' E 140°25'815.3
2018-Feb-21 14:30N 41°17' E 140°17'  
Track history (hours):
 
Tides and Currents Weather Stations Pressure Air Temp Water Temp Dewpoint Dewpoint Depression Visibility Wind Speed Wind Dir Waves Ship Positions

Yunnan

Last reported at 2018-Feb-21 19:28 UTC. Time now 2018-Feb-22 15:15 UTC.
Position N 41°42' E 141°43'.

Length 180 m; draft 6.3 m.

Type: Cargo ship. MMSI: 477855700.

Date/timePositionNaut miles runAvg speedWind from/ knotsBaromVisibWave heightAir tempDewpointWater temp
2018-Feb-21 19:28N 41°42' E 141°43'613.5
2018-Feb-21 19:00N 41°41' E 141°35'714.1
2018-Feb-21 18:30N 41°40' E 141°25'713.4
2018-Feb-21 18:00N 41°38' E 141°17'712.8
2018-Feb-21 17:30N 41°38' E 141°08'714.6
2018-Feb-21 17:00N 41°37' E 140°58'714.9
2018-Feb-21 16:30N 41°35' E 140°49'714.5
2018-Feb-21 16:00N 41°30' E 140°41'714.5
2018-Feb-21 15:30N 41°26' E 140°33'815.1
2018-Feb-21 15:00N 41°22' E 140°25'815.3
2018-Feb-21 14:30N 41°17' E 140°17'  

Dump ship's entire track history